Time;durP1;ratioP1;P1;durP2;ratioP2;P2;SDS_P1;SDS_P2;PMS_P1;PMS_P2;Temp;Humidity;BMP_temperature;BMP_pressure;BME280_temperature;BME280_humidity;BME280_pressure;Samples;Min_cycle;Max_cycle;Signal;HPM_P1;HPM_P2
2022/06/30 00:01:26;;;;;;;5.32;3.15;;;21.00;99.90;;;;;;5133285;27;20625;-53
2022/06/30 00:03:51;;;;;;;3.70;3.22;;;20.90;99.90;;;;;;5136493;27;20206;-53
2022/06/30 00:06:17;;;;;;;6.80;3.60;;;20.90;99.90;;;;;;5135924;27;20178;-53
2022/06/30 00:08:43;;;;;;;5.28;3.00;;;20.90;99.90;;;;;;5135875;27;20246;-53
2022/06/30 00:11:08;;;;;;;7.10;3.55;;;20.80;99.90;;;;;;5135876;27;20254;-53
2022/06/30 00:13:36;;;;;;;5.10;3.53;;;20.80;99.90;;;;;;5135842;27;20247;-53
2022/06/30 00:16:02;;;;;;;3.70;3.15;;;20.80;99.90;;;;;;5135697;27;20175;-53
2022/06/30 00:18:29;;;;;;;4.45;3.10;;;20.70;99.90;;;;;;5135991;27;20168;-53
2022/06/30 00:20:54;;;;;;;5.93;3.05;;;20.70;99.90;;;;;;5135678;27;20171;-53
2022/06/30 00:23:20;;;;;;;5.57;3.05;;;20.70;99.90;;;;;;5117419;27;20180;-53
2022/06/30 00:25:45;;;;;;;5.70;3.72;;;20.50;99.90;;;;;;5135341;27;20693;-53
2022/06/30 00:28:11;;;;;;;3.45;3.15;;;20.40;99.90;;;;;;5135475;27;20160;-53
2022/06/30 00:30:36;;;;;;;4.03;3.22;;;20.30;99.90;;;;;;5135516;27;20239;-53
2022/06/30 00:33:02;;;;;;;3.97;3.10;;;20.30;99.90;;;;;;5135621;27;20187;-53
2022/06/30 00:35:28;;;;;;;5.75;3.63;;;20.30;99.90;;;;;;5117024;27;20211;-53
2022/06/30 00:37:53;;;;;;;9.25;4.00;;;20.20;99.90;;;;;;5135432;27;20597;-53
2022/06/30 00:40:19;;;;;;;8.48;3.97;;;20.30;99.90;;;;;;5135857;27;20172;-53
2022/06/30 00:42:45;;;;;;;5.50;4.35;;;20.30;99.90;;;;;;5135472;27;20175;-54
2022/06/30 00:45:11;;;;;;;4.38;3.97;;;20.30;99.90;;;;;;5135159;27;20570;-53
2022/06/30 00:47:37;;;;;;;7.35;3.60;;;20.30;99.90;;;;;;5135406;27;20209;-54
2022/06/30 00:50:03;;;;;;;6.53;3.60;;;20.10;99.90;;;;;;5135117;27;20164;-54
2022/06/30 00:52:30;;;;;;;3.97;3.00;;;20.10;99.90;;;;;;5135319;27;20506;-54
2022/06/30 00:54:57;;;;;;;5.65;3.60;;;20.00;99.90;;;;;;5135242;27;20172;-53
2022/06/30 00:57:23;;;;;;;9.80;3.42;;;20.00;99.90;;;;;;5135270;27;20156;-53
2022/06/30 00:59:52;;;;;;;11.75;3.85;;;20.00;99.90;;;;;;5135330;27;20164;-53
2022/06/30 01:02:19;;;;;;;3.42;3.13;;;20.00;99.90;;;;;;5116517;27;20217;-53
2022/06/30 01:04:46;;;;;;;5.22;3.92;;;19.80;99.90;;;;;;5134723;27;20290;-53
2022/06/30 01:07:16;;;;;;;16.15;4.13;;;19.90;99.90;;;;;;5134914;27;20164;-53
2022/06/30 01:12:44;;;;;;;6.60;3.75;;;19.90;99.90;;;;;;5134297;27;20163;-53
2022/06/30 01:15:18;;;;;;;9.23;3.65;;;19.90;99.90;;;;;;5134498;27;20190;-53
2022/06/30 01:17:45;;;;;;;4.47;3.50;;;19.90;99.90;;;;;;5134549;27;20196;-54
2022/06/30 01:20:12;;;;;;;4.78;3.67;;;19.90;99.90;;;;;;5134784;27;20524;-53
2022/06/30 01:22:38;;;;;;;6.15;3.50;;;19.80;99.90;;;;;;5134407;27;20250;-53
2022/06/30 01:25:05;;;;;;;6.57;4.57;;;19.70;99.90;;;;;;5134200;27;20220;-53
2022/06/30 01:27:31;;;;;;;8.60;4.55;;;19.60;99.90;;;;;;5134289;27;20160;-53
2022/06/30 01:29:58;;;;;;;6.97;4.90;;;19.60;99.90;;;;;;5134363;27;20217;-53
2022/06/30 01:32:25;;;;;;;7.20;5.10;;;19.50;99.90;;;;;;5134269;27;20174;-53
2022/06/30 01:34:51;;;;;;;10.45;4.97;;;19.40;99.90;;;;;;5134473;27;20528;-53
2022/06/30 01:37:17;;;;;;;7.63;4.82;;;19.40;99.90;;;;;;5134107;27;20192;-53
2022/06/30 01:39:42;;;;;;;10.65;5.57;;;19.30;99.90;;;;;;5134066;27;20288;-53
2022/06/30 01:42:08;;;;;;;8.95;4.90;;;19.20;99.90;;;;;;5134314;27;20659;-53
2022/06/30 01:44:34;;;;;;;12.23;5.65;;;19.30;99.90;;;;;;5133906;27;20710;-53
2022/06/30 01:46:59;;;;;;;6.88;5.25;;;19.30;99.90;;;;;;5133998;27;20247;-53
2022/06/30 01:49:25;;;;;;;8.80;5.40;;;19.40;99.90;;;;;;5133927;27;20659;-53
2022/06/30 01:51:51;;;;;;;9.65;5.57;;;19.30;99.90;;;;;;5134561;27;20587;-53
2022/06/30 01:54:16;;;;;;;16.02;5.60;;;19.30;99.90;;;;;;5133818;27;20220;-53
2022/06/30 01:56:42;;;;;;;10.27;5.72;;;19.20;99.90;;;;;;5133896;27;21168;-53
2022/06/30 01:59:08;;;;;;;14.25;5.40;;;19.20;99.90;;;;;;5133696;27;20168;-53
2022/06/30 02:01:34;;;;;;;10.68;5.75;;;19.20;99.90;;;;;;5133714;27;20242;-53
2022/06/30 02:04:46;;;;;;;11.10;5.80;;;19.20;99.90;;;;;;5133500;27;20207;-53
2022/06/30 02:06:46;;;;;;;9.27;5.85;;;19.20;99.90;;;;;;5118220;27;20559;-53
2022/06/30 02:09:11;;;;;;;9.50;5.80;;;19.20;99.90;;;;;;5133551;27;20663;-53
2022/06/30 02:11:37;;;;;;;9.50;5.90;;;19.30;99.90;;;;;;5133518;27;20164;-53
2022/06/30 02:14:03;;;;;;;8.73;5.78;;;19.30;99.90;;;;;;5115132;27;20155;-53
2022/06/30 02:16:29;;;;;;;7.80;5.90;;;19.30;99.90;;;;;;5133724;27;20160;-53
2022/06/30 02:18:54;;;;;;;7.65;5.60;;;19.30;99.90;;;;;;5133403;27;20164;-53
2022/06/30 02:21:20;;;;;;;11.43;5.78;;;19.30;99.90;;;;;;5134015;27;20542;-53
2022/06/30 02:23:46;;;;;;;7.35;5.30;;;19.30;99.90;;;;;;5132789;27;20192;-53
2022/06/30 02:26:11;;;;;;;9.38;5.90;;;19.30;99.90;;;;;;5133285;27;20203;-53
2022/06/30 02:28:37;;;;;;;9.93;5.57;;;19.40;99.90;;;;;;5133306;27;20168;-53
2022/06/30 02:31:03;;;;;;;10.95;5.95;;;19.40;99.90;;;;;;5133234;27;20172;-53
2022/06/30 02:33:29;;;;;;;8.05;5.15;;;19.40;99.90;;;;;;5133188;27;20681;-53
2022/06/30 02:35:54;;;;;;;7.38;4.97;;;19.30;99.90;;;;;;5133243;27;20172;-53
2022/06/30 02:38:20;;;;;;;11.50;5.05;;;19.40;99.90;;;;;;5133432;27;20585;-53
2022/06/30 02:40:46;;;;;;;8.13;5.32;;;19.30;99.90;;;;;;5133400;27;20163;-53
2022/06/30 02:43:12;;;;;;;9.85;5.28;;;19.30;99.90;;;;;;5132984;27;20240;-53
2022/06/30 02:45:37;;;;;;;11.30;5.07;;;19.30;99.90;;;;;;5132877;27;20180;-53
2022/06/30 02:48:03;;;;;;;10.77;5.00;;;19.30;99.90;;;;;;5132961;27;20159;-53
2022/06/30 02:50:29;;;;;;;16.00;5.40;;;19.30;99.90;;;;;;5133119;27;20171;-53
2022/06/30 02:52:54;;;;;;;8.75;5.38;;;19.30;99.90;;;;;;5133203;27;20172;-53
2022/06/30 02:55:21;;;;;;;8.88;5.22;;;19.20;99.90;;;;;;5133241;27;20202;-53
2022/06/30 02:57:46;;;;;;;6.65;5.00;;;19.20;99.90;;;;;;5132881;28;20215;-53
2022/06/30 03:00:12;;;;;;;11.73;5.15;;;19.20;99.90;;;;;;5132909;28;20205;-53
2022/06/30 03:02:39;;;;;;;9.07;5.18;;;19.20;99.90;;;;;;5133040;28;20582;-53
2022/06/30 03:05:05;;;;;;;8.20;4.75;;;19.20;99.90;;;;;;5132763;28;20260;-53
2022/06/30 03:07:31;;;;;;;12.23;4.90;;;19.20;99.90;;;;;;5132780;28;20164;-53
2022/06/30 03:09:57;;;;;;;7.65;5.00;;;19.20;99.90;;;;;;5133080;28;20168;-54
2022/06/30 03:12:22;;;;;;;5.07;4.45;;;19.30;99.90;;;;;;5133071;28;20628;-55
2022/06/30 03:14:48;;;;;;;10.32;5.32;;;19.30;99.90;;;;;;5133082;28;20164;-54
2022/06/30 03:17:14;;;;;;;8.05;4.72;;;19.40;99.90;;;;;;5132998;28;20682;-53
2022/06/30 03:19:39;;;;;;;7.50;4.85;;;19.30;99.90;;;;;;5132962;28;20254;-53
2022/06/30 03:22:05;;;;;;;9.68;5.43;;;19.30;99.90;;;;;;5132792;28;20166;-54
2022/06/30 03:24:31;;;;;;;7.47;5.32;;;19.30;99.90;;;;;;5132653;28;20269;-53
2022/06/30 03:26:56;;;;;;;10.23;5.55;;;19.30;99.90;;;;;;5132751;28;20338;-53
2022/06/30 03:29:22;;;;;;;6.43;4.93;;;19.30;99.90;;;;;;5132989;28;20168;-54
2022/06/30 03:31:47;;;;;;;6.15;4.53;;;19.20;99.90;;;;;;5132619;28;20192;-53
2022/06/30 03:34:13;;;;;;;9.23;4.25;;;19.40;99.90;;;;;;5132484;28;20612;-54
2022/06/30 03:36:39;;;;;;;6.82;4.60;;;19.30;99.90;;;;;;5134080;27;20160;-53
2022/06/30 03:39:05;;;;;;;9.90;5.18;;;19.30;99.90;;;;;;5136716;27;20190;-53
2022/06/30 03:41:30;;;;;;;7.55;4.68;;;19.40;99.90;;;;;;5136487;27;20528;-53
2022/06/30 03:43:56;;;;;;;8.65;5.50;;;19.30;99.90;;;;;;5135891;27;20212;-53
2022/06/30 03:46:21;;;;;;;10.63;5.03;;;19.10;99.90;;;;;;5136212;27;20165;-54
2022/06/30 03:48:47;;;;;;;8.77;5.93;;;19.00;99.90;;;;;;5134710;27;20220;-54
2022/06/30 03:51:13;;;;;;;8.48;5.95;;;19.20;99.90;;;;;;5135707;27;20166;-54
2022/06/30 03:53:39;;;;;;;10.73;5.32;;;19.10;99.90;;;;;;5135519;27;20209;-53
2022/06/30 03:56:05;;;;;;;14.65;6.18;;;18.90;99.90;;;;;;5135512;27;20198;-53
2022/06/30 03:58:31;;;;;;;13.60;5.20;;;19.00;99.90;;;;;;5135427;27;20166;-53
2022/06/30 04:00:58;;;;;;;8.77;4.80;;;18.90;99.90;;;;;;5135911;27;20168;-53
2022/06/30 04:03:24;;;;;;;16.25;5.55;;;18.90;99.90;;;;;;5116884;27;20236;-53
2022/06/30 04:05:49;;;;;;;14.00;5.65;;;19.00;99.90;;;;;;5136063;27;20164;-53
2022/06/30 04:08:15;;;;;;;12.65;5.20;;;19.00;99.90;;;;;;5116801;27;20164;-54
2022/06/30 04:10:42;;;;;;;12.13;5.97;;;19.10;99.90;;;;;;5135242;27;20164;-53
2022/06/30 04:13:08;;;;;;;14.32;5.72;;;19.10;99.90;;;;;;5135452;27;20172;-53
2022/06/30 04:15:34;;;;;;;9.07;6.03;;;19.20;99.90;;;;;;5135503;27;20221;-53
2022/06/30 04:17:59;;;;;;;9.35;5.40;;;19.20;99.90;;;;;;5135890;27;20194;-53
2022/06/30 04:20:25;;;;;;;12.20;5.93;;;19.20;99.90;;;;;;5135400;27;20628;-53
2022/06/30 04:22:53;;;;;;;10.38;5.68;;;19.20;99.90;;;;;;5135903;27;20164;-53
2022/06/30 04:25:19;;;;;;;15.05;6.00;;;16.00;99.90;;;;;;5135665;27;20239;-54
2022/06/30 04:27:48;;;;;;;9.40;6.13;;;19.30;99.90;;;;;;5135478;27;20172;-53
2022/06/30 04:30:15;;;;;;;14.57;6.43;;;19.30;99.90;;;;;;5135507;27;20196;-53
2022/06/30 04:32:41;;;;;;;12.00;6.25;;;19.30;99.90;;;;;;5135444;27;20239;-54
2022/06/30 04:35:11;;;;;;;15.68;6.35;;;19.40;99.90;;;;;;5135417;27;20269;-54
2022/06/30 04:37:40;;;;;;;9.13;5.97;;;19.50;99.90;;;;;;5135279;27;20254;-53
2022/06/30 04:42:51;;;;;;;13.27;5.40;;;20.00;99.90;;;;;;5135743;27;20175;-54
2022/06/30 04:45:17;;;;;;;12.15;5.32;;;20.10;99.90;;;;;;5135014;27;20195;-53
2022/06/30 04:47:43;;;;;;;12.10;5.85;;;20.20;99.90;;;;;;5134932;27;20233;-53
2022/06/30 04:50:09;;;;;;;13.63;5.70;;;20.40;99.90;;;;;;5135088;27;20163;-53
2022/06/30 04:52:35;;;;;;;14.05;5.10;;;20.50;99.90;;;;;;5135002;27;20164;-53
2022/06/30 04:55:02;;;;;;;10.93;4.82;;;20.70;99.90;;;;;;5135278;27;20164;-53
2022/06/30 04:57:27;;;;;;;11.35;4.80;;;20.70;99.90;;;;;;5134867;27;20617;-53
2022/06/30 04:59:53;;;;;;;15.43;5.72;;;20.80;99.90;;;;;;5134717;27;20179;-54
2022/06/30 05:02:19;;;;;;;13.23;5.60;;;20.80;99.90;;;;;;5135026;27;20160;-54
2022/06/30 05:04:45;;;;;;;15.55;5.18;;;20.90;99.90;;;;;;5116114;27;20625;-54
2022/06/30 05:07:11;;;;;;;8.57;5.30;;;21.00;99.90;;;;;;5134534;27;20497;-54
2022/06/30 05:09:36;;;;;;;17.35;5.30;;;20.90;99.90;;;;;;5134507;27;20175;-54
2022/06/30 05:12:05;;;;;;;7.13;5.13;;;21.00;99.90;;;;;;5134561;27;20540;-54
2022/06/30 05:14:31;;;;;;;12.00;5.60;;;21.20;99.90;;;;;;5134678;27;20239;-54
2022/06/30 05:16:56;;;;;;;12.45;6.13;;;21.40;99.90;;;;;;5134624;27;20621;-54
2022/06/30 05:19:22;;;;;;;9.82;5.10;;;21.50;99.90;;;;;;5134834;27;20168;-54
2022/06/30 05:21:48;;;;;;;19.45;6.10;;;21.60;99.90;;;;;;5134833;27;20248;-54
2022/06/30 05:26:57;;;;;;;7.82;4.07;;;21.80;99.90;;;;;;5134336;27;20172;-54
2022/06/30 05:29:23;;;;;;;7.35;4.82;;;21.80;99.90;;;;;;5134289;27;20172;-54
2022/06/30 05:31:48;;;;;;;11.02;5.40;;;21.90;99.90;;;;;;5134607;27;20679;-54
2022/06/30 05:34:14;;;;;;;8.50;5.00;;;21.80;99.90;;;;;;5134291;27;20296;-54
2022/06/30 05:36:39;;;;;;;12.55;5.72;;;21.90;99.90;;;;;;5134152;27;20160;-54
2022/06/30 05:39:05;;;;;;;10.88;6.28;;;21.90;99.90;;;;;;5134145;27;20239;-53
2022/06/30 05:41:31;;;;;;;13.43;5.63;;;21.80;99.90;;;;;;5133979;27;20160;-54
2022/06/30 05:43:57;;;;;;;11.32;6.55;;;21.90;99.90;;;;;;5134185;27;20203;-54
2022/06/30 05:46:22;;;;;;;8.60;7.13;;;22.00;99.90;;;;;;5134001;27;20172;-54
2022/06/30 05:48:48;;;;;;;12.18;7.35;;;22.20;99.90;;;;;;5134241;27;20175;-54
2022/06/30 05:51:14;;;;;;;12.18;7.53;;;22.10;99.90;;;;;;5134194;27;20188;-54
2022/06/30 05:53:39;;;;;;;10.27;7.88;;;22.20;99.90;;;;;;5133895;27;20599;-54
2022/06/30 05:56:05;;;;;;;11.20;7.60;;;22.20;99.90;;;;;;5133773;27;20255;-54
2022/06/30 05:58:31;;;;;;;9.07;7.68;;;22.20;99.90;;;;;;5133360;27;20157;-54
2022/06/30 06:00:57;;;;;;;11.25;8.57;;;22.20;99.90;;;;;;5133413;27;20681;-54
2022/06/30 06:03:22;;;;;;;12.82;9.13;;;22.10;99.90;;;;;;5133583;27;20198;-54
2022/06/30 06:05:48;;;;;;;15.45;9.70;;;22.20;99.90;;;;;;5133965;27;20217;-54
2022/06/30 06:08:13;;;;;;;18.80;10.18;;;22.30;99.90;;;;;;5133607;27;20160;-54
2022/06/30 06:10:39;;;;;;;16.05;9.13;;;22.20;99.90;;;;;;5133816;27;20172;-54
2022/06/30 06:13:05;;;;;;;14.38;10.55;;;22.40;99.90;;;;;;5133734;27;20164;-54
2022/06/30 06:15:31;;;;;;;18.38;10.00;;;22.40;99.90;;;;;;5133383;27;20164;-54
2022/06/30 06:17:57;;;;;;;13.48;10.30;;;22.50;99.90;;;;;;5133380;27;20172;-54
2022/06/30 06:20:23;;;;;;;15.68;10.15;;;22.50;99.90;;;;;;5133316;27;20160;-54
2022/06/30 06:22:49;;;;;;;21.50;10.52;;;22.50;99.90;;;;;;5133685;27;20521;-53
2022/06/30 06:25:15;;;;;;;13.70;9.38;;;22.60;99.90;;;;;;5133151;27;20220;-54
2022/06/30 06:27:41;;;;;;;10.60;8.25;;;22.70;99.90;;;;;;5133229;27;20616;-54
2022/06/30 06:30:09;;;;;;;14.32;8.00;;;22.70;99.90;;;;;;5133168;27;20544;-54
2022/06/30 06:32:35;;;;;;;12.15;7.72;;;22.90;99.90;;;;;;5133233;27;20160;-54
2022/06/30 06:35:01;;;;;;;8.43;7.38;;;22.90;99.90;;;;;;5133152;27;20617;-53
2022/06/30 06:37:27;;;;;;;11.75;6.95;;;23.00;99.90;;;;;;5133068;27;20171;-54
2022/06/30 06:39:52;;;;;;;17.98;7.28;;;23.10;99.90;;;;;;5133073;27;20201;-54
2022/06/30 06:42:18;;;;;;;16.10;7.57;;;23.10;99.90;;;;;;5133327;27;20171;-53
2022/06/30 06:44:44;;;;;;;14.63;7.10;;;23.10;99.90;;;;;;5132965;27;20572;-54
2022/06/30 06:47:09;;;;;;;9.98;6.55;;;23.20;99.90;;;;;;5133083;27;20199;-54
2022/06/30 06:49:35;;;;;;;12.60;6.78;;;23.30;99.90;;;;;;5133237;27;20259;-54
2022/06/30 06:52:01;;;;;;;12.77;7.68;;;23.40;99.90;;;;;;5132929;27;20243;-54
2022/06/30 06:54:26;;;;;;;13.80;7.53;;;23.60;99.90;;;;;;5132876;27;20167;-54
2022/06/30 06:56:52;;;;;;;10.52;6.85;;;23.50;99.90;;;;;;5133305;27;20164;-54
2022/06/30 06:59:17;;;;;;;7.80;7.00;;;23.60;99.90;;;;;;5133213;28;20156;-54
2022/06/30 07:01:43;;;;;;;8.80;6.28;;;23.60;99.90;;;;;;5132839;28;20527;-54
2022/06/30 07:04:09;;;;;;;8.98;6.57;;;23.60;99.90;;;;;;5132968;28;20203;-54
2022/06/30 07:06:35;;;;;;;8.52;6.18;;;23.70;99.90;;;;;;5132921;28;20167;-54
2022/06/30 07:09:01;;;;;;;9.43;6.15;;;23.90;99.90;;;;;;5114362;28;20278;-54
2022/06/30 07:11:26;;;;;;;11.02;6.28;;;24.00;99.90;;;;;;5133867;27;20176;-54
2022/06/30 07:13:52;;;;;;;10.93;6.05;;;24.10;99.90;;;;;;5137249;27;20172;-54
2022/06/30 07:16:18;;;;;;;7.55;6.05;;;26.20;99.90;;;;;;5137228;27;20635;-54
2022/06/30 07:18:44;;;;;;;9.82;5.75;;;24.20;99.90;;;;;;5137154;27;20172;-53
2022/06/30 07:21:09;;;;;;;7.40;5.22;;;24.30;99.90;;;;;;5136805;27;20174;-54
2022/06/30 07:23:35;;;;;;;8.35;5.63;;;24.40;99.90;;;;;;5136676;27;20213;-54
2022/06/30 07:26:01;;;;;;;8.48;5.35;;;24.40;99.90;;;;;;5136574;27;20290;-54
2022/06/30 07:28:27;;;;;;;8.23;4.30;;;24.50;99.90;;;;;;5136702;27;20205;-54
2022/06/30 07:30:53;;;;;;;7.03;4.65;;;24.50;99.90;;;;;;5136528;27;20225;-54
2022/06/30 07:33:19;;;;;;;11.80;4.63;;;24.50;99.90;;;;;;5136913;27;20629;-54
2022/06/30 07:35:45;;;;;;;5.90;4.15;;;24.70;99.90;;;;;;5136592;27;20168;-54
2022/06/30 07:38:11;;;;;;;10.82;4.10;;;24.80;99.90;;;;;;5136356;27;20625;-54
2022/06/30 07:40:37;;;;;;;10.82;4.68;;;24.70;99.90;;;;;;5136487;27;20171;-56
2022/06/30 07:43:03;;;;;;;10.20;5.03;;;24.70;99.90;;;;;;5136400;27;20179;-54
2022/06/30 07:45:28;;;;;;;8.02;4.93;;;24.70;99.90;;;;;;5136247;27;20204;-54
2022/06/30 07:47:54;;;;;;;10.13;4.75;;;24.90;99.90;;;;;;5136536;27;20176;-54
2022/06/30 07:50:20;;;;;;;11.18;5.22;;;25.00;99.90;;;;;;5136637;27;20160;-54
2022/06/30 07:52:46;;;;;;;13.48;5.05;;;25.00;99.90;;;;;;5136182;27;20289;-54
2022/06/30 07:55:12;;;;;;;11.00;5.03;;;25.30;99.90;;;;;;5136244;27;20246;-54
2022/06/30 07:57:42;;;;;;;7.85;4.57;;;25.20;99.90;;;;;;5136488;27;20175;-54
2022/06/30 08:00:09;;;;;;;15.32;4.85;;;25.20;99.90;;;;;;5136393;27;20368;-54
2022/06/30 08:02:35;;;;;;;11.35;4.72;;;25.50;99.90;;;;;;5135957;27;20205;-54
2022/06/30 08:05:00;;;;;;;10.25;4.30;;;25.50;99.90;;;;;;5136027;27;20203;-54
2022/06/30 08:07:26;;;;;;;7.28;4.05;;;25.50;99.90;;;;;;5135913;27;20168;-54
2022/06/30 08:09:52;;;;;;;11.20;4.75;;;25.60;99.90;;;;;;5136487;27;20164;-54
2022/06/30 08:12:17;;;;;;;15.20;3.78;;;25.50;99.90;;;;;;5135831;27;20156;-54
2022/06/30 08:14:43;;;;;;;10.57;4.53;;;25.60;99.90;;;;;;5135699;27;20156;-54
2022/06/30 08:17:09;;;;;;;9.60;3.60;;;25.70;99.90;;;;;;5135793;27;20612;-54
2022/06/30 08:19:34;;;;;;;17.73;4.00;;;25.80;99.90;;;;;;5135782;27;20179;-55
2022/06/30 08:22:00;;;;;;;8.10;3.47;;;25.90;99.90;;;;;;5135069;27;20250;-54
2022/06/30 08:24:26;;;;;;;17.05;4.30;;;26.10;99.90;;;;;;5135390;27;20219;-54
2022/06/30 08:26:52;;;;;;;22.55;4.60;;;26.10;99.90;;;;;;5134821;27;20235;-54
2022/06/30 08:29:17;;;;;;;13.85;3.35;;;26.10;99.90;;;;;;5141462;27;20179;-54
2022/06/30 08:31:43;;;;;;;14.23;4.13;;;26.00;99.90;;;;;;5136005;27;20232;-54
2022/06/30 08:34:08;;;;;;;19.77;3.63;;;26.10;99.90;;;;;;5133351;27;20166;-54
2022/06/30 08:36:34;;;;;;;16.33;3.60;;;26.10;99.90;;;;;;5133638;27;20300;-54
2022/06/30 08:39:00;;;;;;;15.82;3.67;;;26.20;99.90;;;;;;5133329;27;20164;-54
2022/06/30 08:44:12;;;;;;;10.85;3.65;;;26.20;99.90;;;;;;5133307;27;20210;-54
2022/06/30 08:46:38;;;;;;;12.15;3.65;;;26.20;99.90;;;;;;5134188;27;20320;-54
2022/06/30 08:49:05;;;;;;;11.63;3.80;;;26.30;99.90;;;;;;5135117;27;20164;-54
2022/06/30 08:51:34;;;;;;;15.65;3.45;;;26.50;99.90;;;;;;5135220;27;20167;-54
2022/06/30 08:54:02;;;;;;;14.95;3.45;;;26.80;99.90;;;;;;5135257;27;20167;-54
2022/06/30 08:56:31;;;;;;;11.48;3.95;;;26.90;99.90;;;;;;5135227;27;20204;-54
2022/06/30 08:58:58;;;;;;;16.35;3.65;;;26.80;99.90;;;;;;5135057;27;20175;-54
2022/06/30 09:01:26;;;;;;;11.05;3.55;;;27.00;99.90;;;;;;5134876;27;20634;-54
2022/06/30 09:03:52;;;;;;;12.05;3.40;;;27.00;99.90;;;;;;5135085;27;20209;-55
2022/06/30 09:06:18;;;;;;;12.85;3.92;;;27.10;99.90;;;;;;5135328;27;20628;-54
2022/06/30 09:08:44;;;;;;;11.50;3.80;;;27.20;99.90;;;;;;5134944;27;20271;-54
2022/06/30 09:11:09;;;;;;;14.60;3.65;;;26.90;99.90;;;;;;5134624;27;20159;-54
2022/06/30 09:13:41;;;;;;;14.82;3.83;;;27.10;99.90;;;;;;5134650;27;20171;-55
2022/06/30 09:16:06;;;;;;;12.88;4.07;;;27.10;99.90;;;;;;5134500;27;20636;-55
2022/06/30 09:18:32;;;;;;;18.83;3.35;;;27.20;99.90;;;;;;5134624;27;20251;-54
2022/06/30 09:20:59;;;;;;;17.45;3.67;;;27.30;99.90;;;;;;5134464;27;20167;-54
2022/06/30 09:23:31;;;;;;;13.88;4.25;;;27.40;99.90;;;;;;5134548;27;20192;-54
2022/06/30 09:25:58;;;;;;;15.18;3.45;;;27.20;99.90;;;;;;5134070;27;20271;-54
2022/06/30 09:28:44;;;;;;;12.07;5.15;;;27.30;99.90;;;;;;5134358;27;20159;-54
2022/06/30 09:31:11;;;;;;;11.43;3.75;;;27.20;99.90;;;;;;5134355;27;20172;-54
2022/06/30 09:33:39;;;;;;;10.20;3.17;;;27.40;99.90;;;;;;5133501;27;20224;-54
2022/06/30 09:36:27;;;;;;;6.35;3.17;;;27.50;99.90;;;;;;5134081;27;20644;-54
2022/06/30 09:39:01;;;;;;;12.05;3.15;;;27.50;99.90;;;;;;5134453;27;20175;-54
2022/06/30 09:41:29;;;;;;;11.68;3.40;;;27.60;99.90;;;;;;5115889;27;20164;-54
2022/06/30 09:43:55;;;;;;;7.60;3.15;;;27.80;99.90;;;;;;5134031;27;20727;-54
2022/06/30 09:46:21;;;;;;;11.00;3.40;;;27.70;99.90;;;;;;5134470;27;20251;-54
2022/06/30 09:48:47;;;;;;;8.98;3.35;;;27.60;99.90;;;;;;5134124;27;20203;-54
2022/06/30 09:51:13;;;;;;;7.65;3.05;;;27.50;99.90;;;;;;5133962;27;20160;-55
2022/06/30 09:53:39;;;;;;;8.65;3.47;;;27.70;99.90;;;;;;5133780;27;20167;-54
2022/06/30 09:56:12;;;;;;;9.20;3.83;;;27.70;99.90;;;;;;5115445;27;20195;-54
2022/06/30 09:58:41;;;;;;;9.20;3.50;;;28.00;99.90;;;;;;5134011;27;20171;-54
2022/06/30 10:01:07;;;;;;;12.30;5.13;;;27.90;99.90;;;;;;5134096;27;20566;-54
2022/06/30 10:03:33;;;;;;;10.88;4.85;;;27.90;99.90;;;;;;5133720;27;20163;-54
2022/06/30 10:06:12;;;;;;;15.68;4.85;;;28.00;99.90;;;;;;5133510;27;20172;-54
2022/06/30 10:08:38;;;;;;;9.63;5.05;;;28.00;99.90;;;;;;5133579;27;20182;-54
2022/06/30 10:11:05;;;;;;;14.00;4.60;;;27.80;99.90;;;;;;5133561;27;20176;-55
2022/06/30 10:13:35;;;;;;;10.32;4.38;;;28.00;99.90;;;;;;5133565;27;20247;-55
2022/06/30 10:16:03;;;;;;;12.00;3.97;;;28.20;99.90;;;;;;5133426;27;20167;-54
2022/06/30 10:18:31;;;;;;;10.80;3.85;;;27.90;99.90;;;;;;5133618;27;20254;-54
2022/06/30 10:20:58;;;;;;;10.68;4.15;;;27.70;99.90;;;;;;5133307;27;20191;-54
2022/06/30 10:23:25;;;;;;;17.65;4.22;;;27.70;99.90;;;;;;5133449;27;20193;-54
2022/06/30 10:25:54;;;;;;;15.82;5.40;;;28.00;99.90;;;;;;5133445;27;20618;-54
2022/06/30 10:28:22;;;;;;;11.23;5.38;;;28.30;99.90;;;;;;5133737;27;20172;-54
2022/06/30 10:31:17;;;;;;;12.20;4.65;;;28.30;99.90;;;;;;5133063;27;20193;-54
2022/06/30 10:33:56;;;;;;;11.40;4.05;;;28.60;99.90;;;;;;5124459;27;21154;-54
2022/06/30 10:36:44;;;;;;;9.90;5.03;;;28.90;99.90;;;;;;5133382;27;20183;-55
2022/06/30 10:39:20;;;;;;;7.00;4.03;;;29.10;99.90;;;;;;5133058;27;20238;-52
2022/06/30 10:41:47;;;;;;;10.40;4.65;;;29.20;99.90;;;;;;5132999;27;20169;-53
2022/06/30 10:44:24;;;;;;;15.10;5.22;;;29.30;99.90;;;;;;5133163;27;20257;-53
2022/06/30 10:46:56;;;;;;;12.77;5.13;;;29.10;99.90;;;;;;5133236;27;20178;-53
2022/06/30 10:49:24;;;;;;;10.05;5.75;;;28.90;99.90;;;;;;5133589;27;20231;-54
2022/06/30 10:51:50;;;;;;;13.73;5.38;;;28.80;99.90;;;;;;5133495;27;20270;-54
2022/06/30 10:54:30;;;;;;;6.90;3.88;;;29.00;99.90;;;;;;5132958;27;20164;-53
2022/06/30 10:56:58;;;;;;;8.07;4.80;;;29.10;99.90;;;;;;5133139;27;20185;-53
2022/06/30 10:59:36;;;;;;;9.75;4.03;;;29.20;99.90;;;;;;5133044;27;20171;-53
2022/06/30 11:02:11;;;;;;;8.32;3.10;;;29.10;99.90;;;;;;5132817;28;20628;-53
2022/06/30 11:04:38;;;;;;;13.13;3.85;;;29.00;99.90;;;;;;5133008;28;20203;-53
2022/06/30 11:07:14;;;;;;;16.00;4.47;;;29.00;99.90;;;;;;5132782;28;20155;-53
2022/06/30 11:09:52;;;;;;;7.20;3.00;;;29.50;99.90;;;;;;5132783;28;20179;-53
2022/06/30 11:12:43;;;;;;;8.20;3.65;;;29.40;99.90;;;;;;5133170;28;20173;-53
2022/06/30 11:15:10;;;;;;;6.53;3.55;;;30.70;99.90;;;;;;5132110;28;20175;-53
2022/06/30 11:17:39;;;;;;;6.40;3.97;;;29.40;99.90;;;;;;5132624;28;20189;-53
2022/06/30 11:20:12;;;;;;;9.48;3.15;;;29.20;99.90;;;;;;5132584;28;20636;-53
2022/06/30 11:22:38;;;;;;;8.63;3.55;;;29.50;99.90;;;;;;5132293;28;20602;-53
2022/06/30 11:25:07;;;;;;;8.38;3.20;;;29.50;99.90;;;;;;5132371;28;20260;-53
2022/06/30 11:27:33;;;;;;;5.97;2.70;;;29.30;99.90;;;;;;5132268;28;20163;-53
2022/06/30 11:30:04;;;;;;;8.82;3.42;;;29.40;99.90;;;;;;5114399;28;20164;-54
2022/06/30 11:32:30;;;;;;;11.25;3.47;;;29.60;99.90;;;;;;5132832;28;20164;-53
2022/06/30 11:34:56;;;;;;;17.38;14.27;;;29.60;99.90;;;;;;5132358;28;20652;-53
2022/06/30 11:37:23;;;;;;;7.97;3.63;;;29.80;99.90;;;;;;5114746;28;20171;-53
2022/06/30 11:40:05;;;;;;;11.55;4.20;;;29.70;99.90;;;;;;5132722;28;20175;-53
2022/06/30 11:42:31;;;;;;;7.30;3.30;;;29.90;99.90;;;;;;5132325;28;20639;-53
2022/06/30 11:44:57;;;;;;;8.52;3.47;;;30.20;99.90;;;;;;5132401;28;20211;-53
2022/06/30 11:47:24;;;;;;;7.95;3.88;;;30.20;99.90;;;;;;5132190;28;20167;-53
2022/06/30 11:49:52;;;;;;;10.45;3.60;;;30.40;99.90;;;;;;5132808;28;20632;-53
2022/06/30 11:52:20;;;;;;;4.93;3.20;;;30.40;99.90;;;;;;5132374;28;20170;-53
2022/06/30 11:54:48;;;;;;;7.72;3.70;;;30.30;99.90;;;;;;5132355;28;20169;-53
2022/06/30 11:57:15;;;;;;;6.25;3.10;;;30.30;99.90;;;;;;5133072;27;20170;-53
2022/06/30 11:59:49;;;;;;;7.60;3.00;;;30.30;99.90;;;;;;5136010;27;20167;-53
2022/06/30 12:02:15;;;;;;;8.02;3.25;;;30.60;99.90;;;;;;5100825;27;20164;-53
2022/06/30 12:04:42;;;;;;;6.88;3.78;;;30.40;99.90;;;;;;5136190;27;20659;-52
2022/06/30 12:07:14;;;;;;;8.15;3.30;;;30.40;99.90;;;;;;5135957;27;20552;-53
2022/06/30 12:09:41;;;;;;;5.50;3.13;;;30.60;99.90;;;;;;5136242;27;20171;-53
2022/06/30 12:12:08;;;;;;;8.00;4.68;;;30.80;99.90;;;;;;5136053;27;20174;-53
2022/06/30 12:14:37;;;;;;;6.05;3.92;;;30.50;99.90;;;;;;5136103;27;20167;-53
2022/06/30 12:17:05;;;;;;;9.35;3.78;;;30.60;99.90;;;;;;5135896;27;20171;-53
2022/06/30 12:19:31;;;;;;;8.50;3.40;;;30.50;99.90;;;;;;5135482;27;20170;-53
2022/06/30 12:21:57;;;;;;;4.60;3.45;;;30.50;99.90;;;;;;5135765;27;20160;-53
2022/06/30 12:24:24;;;;;;;14.48;4.43;;;30.60;99.90;;;;;;5135676;27;20215;-53
2022/06/30 12:26:51;;;;;;;9.50;4.00;;;30.40;99.90;;;;;;5136215;27;20182;-53
2022/06/30 12:29:18;;;;;;;8.18;4.05;;;30.60;99.90;;;;;;5135511;27;20348;-53
2022/06/30 12:31:57;;;;;;;7.80;3.25;;;30.60;99.90;;;;;;5135338;27;20163;-53
2022/06/30 12:34:23;;;;;;;5.38;3.88;;;30.30;99.90;;;;;;5135635;27;20216;-53
2022/06/30 12:36:49;;;;;;;6.70;3.38;;;30.40;99.90;;;;;;5135625;27;20173;-53
2022/06/30 12:39:15;;;;;;;6.55;3.35;;;30.50;99.90;;;;;;5135339;27;20250;-53
2022/06/30 12:41:43;;;;;;;8.60;3.55;;;30.40;99.90;;;;;;5135054;27;20676;-53
2022/06/30 12:44:10;;;;;;;6.25;2.80;;;30.50;99.90;;;;;;5135164;27;20237;-53
2022/06/30 12:46:47;;;;;;;6.13;3.17;;;30.60;99.90;;;;;;5135210;27;20170;-53
2022/06/30 12:49:22;;;;;;;7.18;2.72;;;30.50;99.90;;;;;;5135313;27;20175;-53
2022/06/30 12:51:48;;;;;;;7.45;2.92;;;30.40;99.90;;;;;;5135446;27;20565;-53